createdAt,value
2022-10-15T00:01:51.982Z,-0.29
2022-10-15T00:04:21.103Z,-0.22
2022-10-15T00:06:49.849Z,-0.22
2022-10-15T00:09:18.669Z,-0.21
2022-10-15T00:11:47.440Z,-0.22
2022-10-15T00:14:17.096Z,-0.20
2022-10-15T00:16:46.497Z,-0.20
2022-10-15T00:19:15.556Z,-0.19
2022-10-15T00:21:44.425Z,-0.17
2022-10-15T00:24:13.288Z,-0.20
2022-10-15T00:26:42.156Z,-0.15
2022-10-15T00:29:11.054Z,-0.18
2022-10-15T00:31:40.130Z,-0.18
2022-10-15T00:34:09.804Z,-0.11
2022-10-15T00:36:38.843Z,-0.09
2022-10-15T00:39:08.844Z,-0.04
2022-10-15T00:41:42.491Z,-0.03
2022-10-15T00:44:30.030Z,0.01
2022-10-15T00:47:17.628Z,0.02
2022-10-15T00:50:00.423Z,0.05
2022-10-15T00:52:49.745Z,0.01
2022-10-15T00:55:26.202Z,0.00
2022-10-15T00:57:56.658Z,-0.11
2022-10-15T01:00:26.006Z,0.06
2022-10-15T01:02:55.030Z,0.11
2022-10-15T01:05:25.097Z,0.15
2022-10-15T01:07:53.973Z,0.20
2022-10-15T01:10:28.511Z,0.23
2022-10-15T01:13:10.497Z,0.28
2022-10-15T01:16:11.816Z,0.34
2022-10-15T01:19:09.703Z,0.39
2022-10-15T01:21:47.601Z,0.41
2022-10-15T01:24:44.574Z,0.48
2022-10-15T01:27:30.787Z,0.57
2022-10-15T01:30:24.546Z,0.69
2022-10-15T01:33:11.515Z,0.76
2022-10-15T01:36:00.180Z,0.83
2022-10-15T01:38:52.261Z,0.88
2022-10-15T01:41:44.994Z,0.95
2022-10-15T01:44:31.736Z,1.08
2022-10-15T01:47:17.874Z,1.18
2022-10-15T01:49:48.642Z,1.29
2022-10-15T01:55:07.858Z,1.61
2022-10-15T01:57:43.637Z,1.77
2022-10-15T02:00:14.354Z,1.95
2022-10-15T02:02:43.537Z,2.08
2022-10-15T02:05:20.727Z,2.13
2022-10-15T02:08:18.097Z,2.27
2022-10-15T02:10:56.725Z,2.52
2022-10-15T02:13:39.877Z,2.85
2022-10-15T02:16:36.690Z,3.11
2022-10-15T02:19:09.112Z,3.36
2022-10-15T02:21:53.365Z,3.67
2022-10-15T02:24:26.820Z,3.94
2022-10-15T02:26:59.631Z,4.19
2022-10-15T02:29:34.750Z,4.40
2022-10-15T02:32:08.066Z,4.51
2022-10-15T02:34:37.566Z,4.51
2022-10-15T02:37:08.169Z,4.44
2022-10-15T02:39:37.108Z,4.79
2022-10-15T02:42:06.987Z,5.27
2022-10-15T02:44:35.915Z,5.28
2022-10-15T02:47:05.093Z,5.39
2022-10-15T02:49:34.318Z,5.71
2022-10-15T02:52:05.282Z,5.76
2022-10-15T02:54:34.104Z,5.82
2022-10-15T02:57:02.951Z,5.92
2022-10-15T02:59:32.131Z,6.04
2022-10-15T03:02:01.820Z,5.99
2022-10-15T03:04:32.687Z,5.87
2022-10-15T03:07:01.636Z,5.87
2022-10-15T03:09:31.381Z,5.98
2022-10-15T03:12:00.146Z,6.14
2022-10-15T03:16:59.893Z,6.36
2022-10-15T03:19:30.289Z,6.53
2022-10-15T03:21:59.219Z,6.67
2022-10-15T03:24:34.271Z,6.66
2022-10-15T03:27:03.321Z,6.55
2022-10-15T03:29:32.196Z,6.33
2022-10-15T03:32:05.211Z,6.29
2022-10-15T03:34:34.245Z,6.40
2022-10-15T03:37:03.533Z,6.35
2022-10-15T03:39:33.691Z,6.36
2022-10-15T03:42:06.019Z,6.47
2022-10-15T03:44:46.621Z,6.55
2022-10-15T03:47:19.512Z,6.68
2022-10-15T03:49:50.565Z,6.82
2022-10-15T03:52:19.540Z,6.84
2022-10-15T03:54:49.865Z,6.86
2022-10-15T03:57:21.821Z,6.68
2022-10-15T04:00:08.712Z,6.43
2022-10-15T04:02:43.520Z,6.42
2022-10-15T04:05:24.848Z,6.50
2022-10-15T04:07:58.821Z,7.44
2022-10-15T04:10:30.338Z,9.00
2022-10-15T04:12:59.499Z,9.94
2022-10-15T04:15:29.091Z,10.68
2022-10-15T04:18:05.334Z,10.97
2022-10-15T04:20:34.228Z,11.59
2022-10-15T04:23:13.012Z,12.46
2022-10-15T04:25:46.753Z,12.68
2022-10-15T04:28:15.821Z,11.59
2022-10-15T04:30:47.878Z,10.19
2022-10-15T04:33:20.483Z,9.20
2022-10-15T04:36:13.569Z,8.04
2022-10-15T04:38:54.218Z,7.05
2022-10-15T04:41:44.360Z,6.31
2022-10-15T04:44:39.420Z,5.66
2022-10-15T04:47:08.569Z,5.42
2022-10-15T04:49:50.868Z,5.29
2022-10-15T04:52:49.216Z,5.16
2022-10-15T04:55:19.439Z,5.14
2022-10-15T04:57:49.146Z,5.20
2022-10-15T05:00:24.641Z,5.40
2022-10-15T05:03:13.769Z,7.23
2022-10-15T05:06:21.258Z,12.04
2022-10-15T05:08:53.271Z,14.38
2022-10-15T05:11:32.041Z,14.51
2022-10-15T05:14:00.903Z,13.28
2022-10-15T05:16:32.466Z,11.98
2022-10-15T05:19:06.664Z,10.85
2022-10-15T05:21:37.973Z,10.62
2022-10-15T05:24:14.585Z,11.27
2022-10-15T05:26:57.533Z,11.72
2022-10-15T05:29:30.216Z,11.42
2022-10-15T05:31:59.107Z,11.12
2022-10-15T05:34:31.276Z,11.57
2022-10-15T05:37:04.301Z,11.71
2022-10-15T05:39:33.885Z,11.43
2022-10-15T05:42:02.695Z,11.12
2022-10-15T05:44:39.466Z,11.04
2022-10-15T05:47:12.393Z,13.67
2022-10-15T05:49:42.961Z,16.16
2022-10-15T05:52:19.578Z,16.23
2022-10-15T05:55:03.548Z,15.64
2022-10-15T05:57:32.432Z,15.75
2022-10-15T06:00:09.594Z,15.57
2022-10-15T06:02:41.878Z,15.70
2022-10-15T06:05:10.822Z,15.63
2022-10-15T06:07:39.737Z,15.37
2022-10-15T06:10:08.858Z,15.11
2022-10-15T06:12:39.781Z,14.81
2022-10-15T06:15:08.915Z,14.93
2022-10-15T06:17:38.197Z,14.56
2022-10-15T06:20:07.600Z,13.44
2022-10-15T06:25:06.984Z,14.91
2022-10-15T06:27:35.899Z,16.42
2022-10-15T06:30:05.320Z,16.47
2022-10-15T06:32:34.270Z,15.78
2022-10-15T06:35:03.169Z,15.17
2022-10-15T06:37:35.390Z,14.40
2022-10-15T06:40:04.375Z,13.07
2022-10-15T06:42:35.550Z,11.40
2022-10-15T06:45:04.990Z,9.97
2022-10-15T06:47:34.032Z,8.86
2022-10-15T06:50:03.061Z,8.08
2022-10-15T06:52:32.646Z,7.53
2022-10-15T06:55:01.993Z,7.25
2022-10-15T06:57:32.454Z,7.00
2022-10-15T07:00:01.261Z,6.85
2022-10-15T07:02:33.102Z,6.58
2022-10-15T07:05:02.200Z,6.28
2022-10-15T07:07:31.662Z,5.99
2022-10-15T07:10:00.471Z,5.77
2022-10-15T07:12:29.342Z,5.60
2022-10-15T07:14:58.321Z,5.50
2022-10-15T07:17:27.110Z,5.47
2022-10-15T07:19:55.979Z,5.27
2022-10-15T07:22:25.214Z,5.06
2022-10-15T07:24:54.523Z,4.81
2022-10-15T07:27:23.371Z,4.65
2022-10-15T07:29:53.959Z,4.52
2022-10-15T07:32:22.993Z,4.33
2022-10-15T07:34:52.167Z,4.21
2022-10-15T07:37:20.945Z,4.16
2022-10-15T07:39:49.802Z,4.04
2022-10-15T07:42:18.690Z,3.91
2022-10-15T07:44:47.558Z,3.94
2022-10-15T07:47:18.187Z,3.96
2022-10-15T07:49:47.108Z,3.96
2022-10-15T07:52:16.168Z,3.96
2022-10-15T07:54:45.124Z,3.98
2022-10-15T07:57:18.911Z,3.97
2022-10-15T07:59:49.443Z,3.98
2022-10-15T08:02:20.103Z,3.93
2022-10-15T08:04:49.273Z,3.91
2022-10-15T08:07:18.131Z,3.98
2022-10-15T08:12:20.583Z,4.00
2022-10-15T08:14:49.491Z,3.97
2022-10-15T08:17:19.745Z,3.99
2022-10-15T08:19:48.788Z,4.01
2022-10-15T08:22:17.679Z,4.01
2022-10-15T08:24:46.645Z,4.02
2022-10-15T08:27:15.790Z,4.09
2022-10-15T08:29:45.195Z,4.11
2022-10-15T08:32:14.608Z,4.07
2022-10-15T08:34:43.552Z,4.09
2022-10-15T08:37:12.456Z,4.05
2022-10-15T08:39:41.543Z,4.08
2022-10-15T08:42:34.751Z,4.09
2022-10-15T08:45:12.228Z,4.04
2022-10-15T08:47:52.180Z,4.02
2022-10-15T08:50:44.059Z,3.96
2022-10-15T08:53:22.465Z,3.85
2022-10-15T08:55:56.484Z,3.77
2022-10-15T08:58:39.707Z,3.75
2022-10-15T09:01:30.346Z,3.77
2022-10-15T09:04:31.085Z,3.69
2022-10-15T09:07:32.468Z,3.50
2022-10-15T09:10:27.467Z,3.17
2022-10-15T09:13:16.637Z,2.80
2022-10-15T09:15:54.344Z,2.54
2022-10-15T09:18:26.110Z,2.39
2022-10-15T09:20:55.814Z,2.19
2022-10-15T09:23:28.805Z,2.06
2022-10-15T09:26:27.027Z,1.92
2022-10-15T09:29:14.941Z,1.79
2022-10-15T09:31:51.499Z,1.69
2022-10-15T09:35:01.038Z,1.58
2022-10-15T09:38:13.771Z,1.59
2022-10-15T09:40:53.267Z,1.51
2022-10-15T09:43:32.532Z,1.37
2022-10-15T09:46:01.880Z,1.27
2022-10-15T09:48:41.371Z,1.20
2022-10-15T09:51:34.886Z,1.06
2022-10-15T09:54:23.896Z,0.94
2022-10-15T09:56:57.797Z,0.81
2022-10-15T09:59:26.922Z,0.77
2022-10-15T10:01:59.599Z,0.69
2022-10-15T10:04:31.365Z,0.59
2022-10-15T10:07:05.615Z,0.53
2022-10-15T10:09:58.793Z,0.47
2022-10-15T10:12:34.855Z,0.39
2022-10-15T10:15:27.134Z,0.33
2022-10-15T10:17:58.084Z,0.26
2022-10-15T10:20:31.670Z,0.22
2022-10-15T10:23:03.042Z,0.15
2022-10-15T10:25:35.044Z,0.14
2022-10-15T10:28:06.881Z,0.09
2022-10-15T10:30:59.032Z,-0.03
2022-10-15T10:33:51.140Z,-0.16
2022-10-15T10:36:27.820Z,-0.22
2022-10-15T10:39:04.525Z,-0.27
2022-10-15T10:41:54.943Z,-0.30
2022-10-15T10:44:47.586Z,-0.38
2022-10-15T10:47:19.148Z,-0.42
2022-10-15T10:49:54.246Z,-0.49
2022-10-15T10:52:36.073Z,-0.55
2022-10-15T10:55:19.563Z,-0.59
2022-10-15T10:57:54.690Z,-0.56
2022-10-15T11:00:41.713Z,-0.66
2022-10-15T11:03:56.282Z,-0.62
2022-10-15T11:06:47.955Z,-0.75
2022-10-15T11:09:46.357Z,-0.70
2022-10-15T11:12:36.248Z,-0.71
2022-10-15T11:15:11.196Z,-0.76
2022-10-15T11:17:45.831Z,-0.80
2022-10-15T11:20:59.845Z,-0.90
2022-10-15T11:23:42.778Z,-1.00
2022-10-15T11:26:46.025Z,-1.13
2022-10-15T11:29:54.738Z,-1.16
2022-10-15T11:32:54.511Z,-1.18
2022-10-15T11:35:59.029Z,-1.19
2022-10-15T11:38:42.725Z,-1.20
2022-10-15T11:41:20.654Z,-1.20
2022-10-15T11:44:04.475Z,-1.20
2022-10-15T11:46:45.788Z,-1.24
2022-10-15T11:49:27.850Z,-1.19
2022-10-15T11:52:05.051Z,-1.23
2022-10-15T11:54:41.381Z,-1.27
2022-10-15T11:57:14.610Z,-1.30
2022-10-15T11:59:58.785Z,-1.29
2022-10-15T12:02:37.022Z,-1.33
2022-10-15T12:05:35.925Z,-1.36
2022-10-15T12:08:05.862Z,-1.44
2022-10-15T12:11:06.013Z,-1.47
2022-10-15T12:13:49.510Z,-1.50
2022-10-15T12:16:30.245Z,-1.54
2022-10-15T12:19:17.522Z,-1.55
2022-10-15T12:22:07.402Z,-1.55
2022-10-15T12:24:40.240Z,-1.56
2022-10-15T12:27:21.348Z,-1.57
2022-10-15T12:30:14.837Z,-1.60
2022-10-15T12:32:49.254Z,-1.64
2022-10-15T12:35:32.064Z,-1.67
2022-10-15T12:38:31.584Z,-1.74
2022-10-15T12:41:10.232Z,-1.75
2022-10-15T12:43:51.950Z,-1.79
2022-10-15T12:46:20.931Z,-1.78
2022-10-15T12:48:54.609Z,-1.77
2022-10-15T12:51:23.393Z,-1.79
2022-10-15T12:53:58.378Z,-1.80
2022-10-15T12:56:42.222Z,-1.82
2022-10-15T12:59:50.749Z,-1.84
2022-10-15T13:02:35.572Z,-1.79
2022-10-15T13:05:07.360Z,-1.79
2022-10-15T13:07:41.533Z,-1.79
2022-10-15T13:10:25.898Z,-1.78
2022-10-15T13:12:58.501Z,-1.80
2022-10-15T13:15:30.447Z,-1.77
2022-10-15T13:18:05.806Z,-1.80
2022-10-15T13:20:43.811Z,-1.80
2022-10-15T13:23:30.693Z,-1.80
2022-10-15T13:26:20.068Z,-1.80
2022-10-15T13:28:51.715Z,-1.82
2022-10-15T13:31:33.032Z,-1.87
2022-10-15T13:34:29.360Z,-1.87
2022-10-15T13:37:01.241Z,-1.94
2022-10-15T13:39:41.178Z,-1.91
2022-10-15T13:42:14.449Z,-1.88
2022-10-15T13:44:44.797Z,-1.84
2022-10-15T13:47:25.906Z,-1.80
2022-10-15T13:50:19.694Z,-1.83
2022-10-15T13:53:00.113Z,-1.93
2022-10-15T13:55:37.478Z,-2.01
2022-10-15T13:58:22.259Z,-2.00
2022-10-15T14:00:57.607Z,-2.04
2022-10-15T14:03:32.917Z,-2.08
2022-10-15T14:06:19.348Z,-2.07
2022-10-15T14:08:50.686Z,-2.06
2022-10-15T14:11:20.116Z,-2.08
2022-10-15T14:13:54.575Z,-2.07
2022-10-15T14:16:31.572Z,-2.06
2022-10-15T14:19:11.815Z,-2.09
2022-10-15T14:21:47.806Z,-2.16
2022-10-15T14:24:22.614Z,-2.19
2022-10-15T14:26:51.995Z,-2.23
2022-10-15T14:29:20.958Z,-2.18
2022-10-15T14:31:50.521Z,-2.21
2022-10-15T14:34:39.148Z,-2.20
2022-10-15T14:37:33.195Z,-2.18
2022-10-15T14:40:05.191Z,-2.19
2022-10-15T14:42:35.034Z,-2.19
2022-10-15T14:45:20.697Z,-2.26
2022-10-15T14:47:52.368Z,-2.24
2022-10-15T14:50:24.161Z,-2.25
2022-10-15T14:52:55.451Z,-2.27
2022-10-15T14:55:24.981Z,-2.29
2022-10-15T14:57:54.115Z,-2.35
2022-10-15T15:00:59.564Z,-2.40
2022-10-15T15:03:31.941Z,-2.39
2022-10-15T15:06:01.062Z,-2.39
2022-10-15T15:08:30.129Z,-2.41
2022-10-15T15:11:01.652Z,-2.40
2022-10-15T15:13:39.199Z,-2.39
2022-10-15T15:16:10.367Z,-2.44
2022-10-15T15:18:39.344Z,-2.42
2022-10-15T15:21:11.325Z,-2.44
2022-10-15T15:23:40.283Z,-2.39
2022-10-15T15:26:09.031Z,-2.40
2022-10-15T15:28:37.876Z,-2.43
2022-10-15T15:31:18.493Z,-2.39
2022-10-15T15:33:47.416Z,-2.38
2022-10-15T15:36:22.496Z,-2.37
2022-10-15T15:38:53.293Z,-2.39
2022-10-15T15:41:24.549Z,-2.39
2022-10-15T15:43:55.547Z,-2.42
2022-10-15T15:46:24.424Z,-2.44
2022-10-15T15:48:53.364Z,-2.46
2022-10-15T15:51:32.745Z,-2.48
2022-10-15T15:54:05.113Z,-2.47
2022-10-15T15:56:35.502Z,-2.45
2022-10-15T15:59:04.380Z,-2.46
2022-10-15T16:01:33.715Z,-2.45
2022-10-15T16:04:03.110Z,-2.51
2022-10-15T16:06:32.000Z,-2.50
2022-10-15T16:09:00.885Z,-2.49
2022-10-15T16:11:29.752Z,-2.49
2022-10-15T16:13:58.738Z,-2.43
2022-10-15T16:16:28.208Z,-2.40
2022-10-15T16:18:57.210Z,-2.42
2022-10-15T16:21:27.086Z,-2.37
2022-10-15T16:23:56.361Z,-2.43
2022-10-15T16:26:25.226Z,-2.44
2022-10-15T16:28:54.175Z,-2.44
2022-10-15T16:31:29.514Z,-2.45
2022-10-15T16:33:59.816Z,-2.50
2022-10-15T16:36:28.707Z,-2.48
2022-10-15T16:38:57.928Z,-2.44
2022-10-15T16:41:26.734Z,-2.43
2022-10-15T16:43:55.793Z,-2.45
2022-10-15T16:46:24.805Z,-2.45
2022-10-15T16:48:58.380Z,-2.44
2022-10-15T16:51:28.229Z,-2.48
2022-10-15T16:54:00.030Z,-2.46
2022-10-15T16:56:32.066Z,-2.52
2022-10-15T16:59:01.146Z,-2.49
2022-10-15T17:01:31.251Z,-2.49
2022-10-15T17:04:01.073Z,-2.52
2022-10-15T17:06:31.623Z,-2.52
2022-10-15T17:09:05.322Z,-2.54
2022-10-15T17:11:37.175Z,-2.53
2022-10-15T17:14:09.703Z,-2.51
2022-10-15T17:16:41.873Z,-2.51
2022-10-15T17:19:12.067Z,-2.52
2022-10-15T17:21:42.661Z,-2.60
2022-10-15T17:24:15.126Z,-2.60
2022-10-15T17:26:45.354Z,-2.63
2022-10-15T17:29:20.959Z,-2.67
2022-10-15T17:31:51.049Z,-2.68
2022-10-15T17:34:20.069Z,-2.69
2022-10-15T17:36:50.480Z,-2.72
2022-10-15T17:39:22.328Z,-2.72
2022-10-15T17:41:55.040Z,-2.73
2022-10-15T17:44:23.918Z,-2.73
2022-10-15T17:46:53.169Z,-2.72
2022-10-15T17:49:28.746Z,-2.75
2022-10-15T17:51:57.543Z,-2.70
2022-10-15T17:54:26.355Z,-2.70
2022-10-15T17:56:55.273Z,-2.70
2022-10-15T17:59:25.150Z,-2.70
2022-10-15T18:01:59.302Z,-2.73
2022-10-15T18:04:30.622Z,-2.73
2022-10-15T18:06:59.551Z,-2.72
2022-10-15T18:09:28.952Z,-2.72
2022-10-15T18:12:01.277Z,-2.75
2022-10-15T18:14:32.361Z,-2.76
2022-10-15T18:17:01.524Z,-2.77
2022-10-15T18:19:30.554Z,-2.76
2022-10-15T18:21:59.533Z,-2.77
2022-10-15T18:24:28.354Z,-2.78
2022-10-15T18:26:57.159Z,-2.79
2022-10-15T18:29:26.542Z,-2.80
2022-10-15T18:31:58.167Z,-2.77
2022-10-15T18:34:29.032Z,-2.78
2022-10-15T18:36:58.158Z,-2.77
2022-10-15T18:39:27.598Z,-2.81
2022-10-15T18:41:57.044Z,-2.80
2022-10-15T18:44:26.121Z,-2.75
2022-10-15T18:46:54.883Z,-2.78
2022-10-15T18:49:23.751Z,-2.81
2022-10-15T18:51:53.467Z,-2.85
2022-10-15T18:54:22.940Z,-2.83
2022-10-15T18:56:53.282Z,-2.83
2022-10-15T18:59:22.526Z,-2.86
2022-10-15T19:01:55.152Z,-2.81
2022-10-15T19:04:25.026Z,-2.83
2022-10-15T19:06:55.566Z,-2.84
2022-10-15T19:09:27.008Z,-2.85
2022-10-15T19:11:57.679Z,-2.85
2022-10-15T19:14:31.029Z,-2.84
2022-10-15T19:17:00.061Z,-2.89
2022-10-15T19:19:30.133Z,-2.88
2022-10-15T19:21:59.045Z,-2.94
2022-10-15T19:24:28.496Z,-2.92
2022-10-15T19:26:57.305Z,-2.94
2022-10-15T19:29:26.188Z,-2.94
2022-10-15T19:31:56.299Z,-3.01
2022-10-15T19:34:25.634Z,-3.06
2022-10-15T19:36:54.513Z,-3.09
2022-10-15T19:39:25.251Z,-3.06
2022-10-15T19:41:54.412Z,-3.07
2022-10-15T19:44:26.171Z,-3.10
2022-10-15T19:46:56.377Z,-3.11
2022-10-15T19:49:25.983Z,-3.14
2022-10-15T19:51:56.180Z,-3.16
2022-10-15T19:56:58.715Z,-3.16
2022-10-15T19:59:27.764Z,-3.18
2022-10-15T20:01:57.522Z,-3.18
2022-10-15T20:04:26.513Z,-3.16
2022-10-15T20:06:55.331Z,-3.21
2022-10-15T20:09:24.252Z,-3.21
2022-10-15T20:11:53.043Z,-3.26
2022-10-15T20:14:21.834Z,-3.29
2022-10-15T20:16:50.580Z,-3.33
2022-10-15T20:19:22.615Z,-3.32
2022-10-15T20:21:51.447Z,-3.30
2022-10-15T20:24:20.265Z,-3.30
2022-10-15T20:26:51.280Z,-3.31
2022-10-15T20:29:20.242Z,-3.31
2022-10-15T20:31:51.851Z,-3.34
2022-10-15T20:34:20.756Z,-3.36
2022-10-15T20:36:53.715Z,-3.35
2022-10-15T20:39:23.655Z,-3.38
2022-10-15T20:41:52.723Z,-3.36
2022-10-15T20:44:21.492Z,-3.34
2022-10-15T20:46:54.868Z,-3.33
2022-10-15T20:49:30.692Z,-3.36
2022-10-15T20:51:59.981Z,-3.36
2022-10-15T20:54:28.797Z,-3.36
2022-10-15T20:56:57.682Z,-3.37
2022-10-15T20:59:29.536Z,-3.38
2022-10-15T21:02:00.268Z,-3.39
2022-10-15T21:04:29.720Z,-3.45
2022-10-15T21:06:58.923Z,-3.49
2022-10-15T21:09:27.766Z,-3.52
2022-10-15T21:11:56.604Z,-3.56
2022-10-15T21:14:25.428Z,-3.59
2022-10-15T21:16:54.308Z,-3.55
2022-10-15T21:19:23.134Z,-3.59
2022-10-15T21:21:51.972Z,-3.55
2022-10-15T21:24:21.121Z,-3.60
2022-10-15T21:26:49.858Z,-3.66
2022-10-15T21:29:18.639Z,-3.66
2022-10-15T21:31:48.311Z,-3.68
2022-10-15T21:34:17.120Z,-3.71
2022-10-15T21:36:45.947Z,-3.77
2022-10-15T21:39:14.834Z,-3.82
2022-10-15T21:41:43.661Z,-3.84
2022-10-15T21:44:12.595Z,-3.81
2022-10-15T21:46:42.826Z,-3.80
2022-10-15T21:49:11.764Z,-3.79
2022-10-15T21:51:41.003Z,-3.83
2022-10-15T21:54:10.113Z,-3.80
2022-10-15T21:56:39.529Z,-3.83
2022-10-15T21:59:08.889Z,-3.85
2022-10-15T22:01:39.258Z,-3.90
2022-10-15T22:04:10.573Z,-3.95
2022-10-15T22:06:40.745Z,-3.98
2022-10-15T22:09:11.683Z,-4.02
2022-10-15T22:11:42.799Z,-4.05
2022-10-15T22:14:13.597Z,-4.06
2022-10-15T22:16:42.838Z,-4.07
2022-10-15T22:19:15.075Z,-4.06
2022-10-15T22:21:44.306Z,-4.10
2022-10-15T22:24:17.623Z,-4.21
2022-10-15T22:26:49.634Z,-4.22
2022-10-15T22:29:30.621Z,-4.29
2022-10-15T22:32:03.524Z,-4.37
2022-10-15T22:34:32.463Z,-4.41
2022-10-15T22:37:01.341Z,-4.47
2022-10-15T22:39:30.304Z,-4.48
2022-10-15T22:41:59.215Z,-4.48
2022-10-15T22:44:28.060Z,-4.50
2022-10-15T22:46:56.886Z,-4.53
2022-10-15T22:49:26.481Z,-4.56
2022-10-15T22:51:55.261Z,-4.59
2022-10-15T22:54:24.172Z,-4.61
2022-10-15T22:56:53.138Z,-4.59
2022-10-15T22:59:22.004Z,-4.55
2022-10-15T23:01:51.947Z,-4.48
2022-10-15T23:04:20.973Z,-4.45
2022-10-15T23:06:50.181Z,-4.49
2022-10-15T23:09:20.527Z,-4.49
2022-10-15T23:11:49.480Z,-4.53
2022-10-15T23:14:18.508Z,-4.49
2022-10-15T23:16:48.541Z,-4.47
2022-10-15T23:19:22.753Z,-4.51
2022-10-15T23:21:52.286Z,-4.48
2022-10-15T23:24:23.849Z,-4.47
2022-10-15T23:26:53.477Z,-4.51
2022-10-15T23:29:25.311Z,-4.49
2022-10-15T23:31:55.325Z,-4.50
2022-10-15T23:34:26.531Z,-4.54
2022-10-15T23:36:55.453Z,-4.53
2022-10-15T23:39:27.371Z,-4.51
2022-10-15T23:41:56.391Z,-4.44
2022-10-15T23:44:29.174Z,-4.42
2022-10-15T23:46:58.165Z,-4.41
2022-10-15T23:49:27.257Z,-4.36
2022-10-15T23:51:56.147Z,-4.35
2022-10-15T23:54:24.958Z,-4.27
2022-10-15T23:56:53.767Z,-4.20
2022-10-15T23:59:22.837Z,-4.16
